createdAt,value
2017-10-08T00:02:11.445Z,97.86
2017-10-08T00:04:39.954Z,98.16
2017-10-08T00:07:09.085Z,98.24
2017-10-08T00:09:37.537Z,98.24
2017-10-08T00:12:06.022Z,98.47
2017-10-08T00:14:34.588Z,98.44
2017-10-08T00:17:03.029Z,98.24
2017-10-08T00:19:32.261Z,97.98
2017-10-08T00:22:00.688Z,96.97
2017-10-08T00:24:29.131Z,97.14
2017-10-08T00:26:57.576Z,97.33
2017-10-08T00:29:26.800Z,97.16
2017-10-08T00:31:55.258Z,97.35
2017-10-08T00:34:24.456Z,97.12
2017-10-08T00:36:53.686Z,96.86
2017-10-08T00:39:22.194Z,97.09
2017-10-08T00:41:50.654Z,96.84
2017-10-08T00:44:19.085Z,97.26
2017-10-08T00:46:47.536Z,97.35
2017-10-08T00:49:15.969Z,97.17
2017-10-08T00:51:45.197Z,97.22
2017-10-08T00:54:13.638Z,97.20
2017-10-08T00:56:42.864Z,97.25
2017-10-08T00:59:11.298Z,97.20
2017-10-08T01:01:39.840Z,97.29
2017-10-08T01:04:08.278Z,97.35
2017-10-08T01:06:36.808Z,97.19
2017-10-08T01:09:05.250Z,97.24
2017-10-08T01:11:34.756Z,97.23
2017-10-08T01:14:03.970Z,97.28
2017-10-08T01:16:33.177Z,97.25
2017-10-08T01:19:01.641Z,97.39
2017-10-08T01:21:30.853Z,97.12
2017-10-08T01:23:59.312Z,97.41
2017-10-08T01:26:27.836Z,97.44
2017-10-08T01:28:56.289Z,97.71
2017-10-08T01:31:25.486Z,97.74
2017-10-08T01:33:54.701Z,97.86
2017-10-08T01:36:23.129Z,97.98
2017-10-08T01:38:51.580Z,97.99
2017-10-08T01:41:20.022Z,97.85
2017-10-08T01:43:49.252Z,98.08
2017-10-08T01:46:17.755Z,97.86
2017-10-08T01:48:46.201Z,98.05
2017-10-08T01:51:15.430Z,98.17
2017-10-08T01:53:43.903Z,97.86
2017-10-08T01:56:12.403Z,98.11
2017-10-08T01:58:40.841Z,98.18
2017-10-08T02:01:10.065Z,97.88
2017-10-08T02:03:38.503Z,97.86
2017-10-08T02:06:06.956Z,97.99
2017-10-08T02:08:35.388Z,97.74
2017-10-08T02:11:04.616Z,97.60
2017-10-08T02:13:33.063Z,97.12
2017-10-08T02:16:02.289Z,96.78
2017-10-08T02:18:30.723Z,97.19
2017-10-08T02:20:59.182Z,95.27
2017-10-08T02:23:27.634Z,93.42
2017-10-08T02:25:56.093Z,93.36
2017-10-08T02:28:25.297Z,91.33
2017-10-08T02:30:54.530Z,91.12
2017-10-08T02:33:23.004Z,92.67
2017-10-08T02:35:51.450Z,91.50
2017-10-08T02:38:20.785Z,91.52
2017-10-08T02:40:49.222Z,90.39
2017-10-08T02:43:18.453Z,91.57
2017-10-08T02:45:46.889Z,91.37
2017-10-08T02:48:15.346Z,91.52
2017-10-08T02:50:43.776Z,91.43
2017-10-08T02:53:12.997Z,92.48
2017-10-08T02:55:41.492Z,92.14
2017-10-08T02:58:09.949Z,93.02
2017-10-08T03:00:38.385Z,93.03
2017-10-08T03:03:06.841Z,93.53
2017-10-08T03:05:35.272Z,94.53
2017-10-08T03:08:04.506Z,94.54
2017-10-08T03:10:32.941Z,94.53
2017-10-08T03:13:01.393Z,94.16
2017-10-08T03:15:29.852Z,93.34
2017-10-08T03:17:58.343Z,93.16
2017-10-08T03:20:26.772Z,92.81
2017-10-08T03:22:55.213Z,92.91
2017-10-08T03:25:23.678Z,93.32
2017-10-08T03:27:52.113Z,91.58
2017-10-08T03:30:20.573Z,91.85
2017-10-08T03:32:49.001Z,90.76
2017-10-08T03:35:18.227Z,90.80
2017-10-08T03:37:46.675Z,91.15
2017-10-08T03:40:16.010Z,91.04
2017-10-08T03:42:44.499Z,90.96
2017-10-08T03:45:12.965Z,90.83
2017-10-08T03:47:41.401Z,91.02
2017-10-08T03:50:09.866Z,89.52
2017-10-08T03:52:38.306Z,89.96
2017-10-08T03:55:06.802Z,91.42
2017-10-08T03:57:35.233Z,90.57
2017-10-08T04:00:03.681Z,91.08
2017-10-08T04:02:32.144Z,90.86
2017-10-08T04:05:00.582Z,92.30
2017-10-08T04:07:29.827Z,91.71
2017-10-08T04:09:58.269Z,92.71
2017-10-08T04:12:27.496Z,92.87
2017-10-08T04:14:55.938Z,93.78
2017-10-08T04:17:24.470Z,94.05
2017-10-08T04:19:52.927Z,94.14
2017-10-08T04:22:22.150Z,93.80
2017-10-08T04:24:50.634Z,93.74
2017-10-08T04:27:19.097Z,93.35
2017-10-08T04:29:47.524Z,92.96
2017-10-08T04:32:16.075Z,93.43
2017-10-08T04:34:44.567Z,92.63
2017-10-08T04:37:13.026Z,92.54
2017-10-08T04:39:41.526Z,92.76
2017-10-08T04:42:10.014Z,92.98
2017-10-08T04:44:38.480Z,93.17
2017-10-08T04:47:06.970Z,93.52
2017-10-08T04:49:35.416Z,93.53
2017-10-08T04:52:04.608Z,93.92
2017-10-08T04:54:33.833Z,93.91
2017-10-08T04:57:02.270Z,93.94
2017-10-08T04:59:31.627Z,94.51
2017-10-08T05:02:00.109Z,93.96
2017-10-08T05:04:28.598Z,93.86
2017-10-08T05:06:57.082Z,93.95
2017-10-08T05:09:25.556Z,94.02
2017-10-08T05:11:54.046Z,94.17
2017-10-08T05:14:22.531Z,94.25
2017-10-08T05:16:50.961Z,94.02
2017-10-08T05:19:20.206Z,94.03
2017-10-08T05:21:48.637Z,94.31
2017-10-08T05:24:17.177Z,94.44
2017-10-08T05:26:45.633Z,94.73
2017-10-08T05:29:14.066Z,95.14
2017-10-08T05:31:42.526Z,95.17
2017-10-08T05:34:10.997Z,95.31
2017-10-08T05:36:39.458Z,95.20
2017-10-08T05:39:07.884Z,95.43
2017-10-08T05:41:36.332Z,95.33
2017-10-08T05:44:04.766Z,95.47
2017-10-08T05:46:33.306Z,95.42
2017-10-08T05:49:01.741Z,95.43
2017-10-08T05:51:30.966Z,95.39
2017-10-08T05:53:59.470Z,95.62
2017-10-08T05:56:27.955Z,95.71
2017-10-08T05:58:56.389Z,95.76
2017-10-08T06:01:25.630Z,95.87
2017-10-08T06:03:54.114Z,95.97
2017-10-08T06:06:22.594Z,95.79
2017-10-08T06:08:51.030Z,96.12
2017-10-08T06:11:20.268Z,95.88
2017-10-08T06:13:48.701Z,95.64
2017-10-08T06:16:17.356Z,95.93
2017-10-08T06:18:45.827Z,95.51
2017-10-08T06:21:14.317Z,95.34
2017-10-08T06:23:42.755Z,94.98
2017-10-08T06:26:11.949Z,95.01
2017-10-08T06:28:41.170Z,95.11
2017-10-08T06:31:09.591Z,94.21
2017-10-08T06:33:38.153Z,94.02
2017-10-08T06:36:06.585Z,93.72
2017-10-08T06:38:35.808Z,92.16
2017-10-08T06:41:05.010Z,91.92
2017-10-08T06:43:33.504Z,91.16
2017-10-08T06:46:01.938Z,90.42
2017-10-08T06:48:30.477Z,91.59
2017-10-08T06:50:58.923Z,89.18
2017-10-08T06:53:28.145Z,88.48
2017-10-08T06:55:56.582Z,87.65
2017-10-08T06:58:25.062Z,88.01
2017-10-08T07:00:53.489Z,86.86
2017-10-08T07:03:21.926Z,86.93
2017-10-08T07:05:50.376Z,86.45
2017-10-08T07:08:18.804Z,86.76
2017-10-08T07:10:48.025Z,86.65
2017-10-08T07:13:16.538Z,86.91
2017-10-08T07:15:44.997Z,85.78
2017-10-08T07:18:13.428Z,85.84
2017-10-08T07:20:41.880Z,84.64
2017-10-08T07:23:10.317Z,85.36
2017-10-08T07:25:39.541Z,85.37
2017-10-08T07:28:07.986Z,85.09
2017-10-08T07:30:37.213Z,84.71
2017-10-08T07:33:05.650Z,84.69
2017-10-08T07:35:35.617Z,84.48
2017-10-08T07:38:04.052Z,84.00
2017-10-08T07:40:32.512Z,83.46
2017-10-08T07:43:00.976Z,83.01
2017-10-08T07:45:29.412Z,83.11
2017-10-08T07:47:58.636Z,83.47
2017-10-08T07:50:27.073Z,82.92
2017-10-08T07:52:55.524Z,82.99
2017-10-08T07:55:23.953Z,82.90
2017-10-08T07:57:53.197Z,83.04
2017-10-08T08:00:21.646Z,82.54
2017-10-08T08:02:50.979Z,81.92
2017-10-08T08:05:19.459Z,82.18
2017-10-08T08:07:47.910Z,80.67
2017-10-08T08:10:17.117Z,80.48
2017-10-08T08:12:46.342Z,80.33
2017-10-08T08:15:14.816Z,80.25
2017-10-08T08:17:43.268Z,80.11
2017-10-08T08:20:12.465Z,79.57
2017-10-08T08:22:41.674Z,79.28
2017-10-08T08:25:11.010Z,78.89
2017-10-08T08:27:39.493Z,77.90
2017-10-08T08:30:07.973Z,78.71
2017-10-08T08:32:36.413Z,78.33
2017-10-08T08:35:05.757Z,76.61
2017-10-08T08:37:34.193Z,75.25
2017-10-08T08:40:03.421Z,75.68
2017-10-08T08:42:31.858Z,75.64
2017-10-08T08:45:00.321Z,76.31
2017-10-08T08:47:28.762Z,76.24
2017-10-08T08:49:57.221Z,75.39
2017-10-08T08:52:26.416Z,74.97
2017-10-08T08:54:55.642Z,75.55
2017-10-08T08:57:24.086Z,75.54
2017-10-08T08:59:53.328Z,75.37
2017-10-08T09:02:21.768Z,75.09
2017-10-08T09:04:50.236Z,75.95
2017-10-08T09:07:18.783Z,76.14
2017-10-08T09:09:47.217Z,76.74
2017-10-08T09:12:15.735Z,76.20
2017-10-08T09:14:44.171Z,76.38
2017-10-08T09:17:12.633Z,74.94
2017-10-08T09:19:41.096Z,75.81
2017-10-08T09:22:09.566Z,75.13
2017-10-08T09:24:37.996Z,74.64
2017-10-08T09:27:06.447Z,75.10
2017-10-08T09:29:34.883Z,74.94
2017-10-08T09:32:04.109Z,74.14
2017-10-08T09:34:32.545Z,72.32
2017-10-08T09:37:01.013Z,72.25
2017-10-08T09:39:29.561Z,72.88
2017-10-08T09:41:58.004Z,72.40
2017-10-08T09:44:27.233Z,70.92
2017-10-08T09:46:55.660Z,70.03
2017-10-08T09:49:24.117Z,69.98
2017-10-08T09:51:52.554Z,68.64
2017-10-08T09:54:21.917Z,68.81
2017-10-08T09:56:50.374Z,66.85
2017-10-08T09:59:18.846Z,67.93
2017-10-08T10:01:47.378Z,69.52
2017-10-08T10:04:15.835Z,69.08
2017-10-08T10:06:44.304Z,67.94
2017-10-08T10:09:12.765Z,67.06
2017-10-08T10:11:41.196Z,68.96
2017-10-08T10:14:09.750Z,69.49
2017-10-08T10:16:38.320Z,70.93
2017-10-08T10:19:06.748Z,71.21
2017-10-08T10:21:35.204Z,69.87
2017-10-08T10:24:03.641Z,70.11
2017-10-08T10:26:32.104Z,70.44
2017-10-08T10:29:00.549Z,71.46
2017-10-08T10:31:29.117Z,72.14
2017-10-08T10:33:57.606Z,72.95
2017-10-08T10:36:26.082Z,72.58
2017-10-08T10:38:54.570Z,73.38
2017-10-08T10:41:23.033Z,73.80
2017-10-08T10:43:51.469Z,73.55
2017-10-08T10:46:20.093Z,73.68
2017-10-08T10:48:48.588Z,73.01
2017-10-08T10:51:17.029Z,72.69
2017-10-08T10:53:45.564Z,71.80
2017-10-08T10:56:13.992Z,71.87
2017-10-08T10:58:42.449Z,71.86
2017-10-08T11:01:10.885Z,67.15
2017-10-08T11:03:39.358Z,67.07
2017-10-08T11:06:08.588Z,66.04
2017-10-08T11:08:37.047Z,66.08
2017-10-08T11:11:05.480Z,63.57
2017-10-08T11:13:33.928Z,63.06
2017-10-08T11:16:02.382Z,63.58
2017-10-08T11:18:31.715Z,63.52
2017-10-08T11:21:00.161Z,63.76
2017-10-08T11:23:29.484Z,64.78
2017-10-08T11:25:57.977Z,64.07
2017-10-08T11:28:26.454Z,64.22
2017-10-08T11:30:54.910Z,63.29
2017-10-08T11:33:24.104Z,62.89
2017-10-08T11:35:53.320Z,62.70
2017-10-08T11:38:21.812Z,62.30
2017-10-08T11:40:50.281Z,58.35
2017-10-08T11:43:18.716Z,57.76
2017-10-08T11:45:47.175Z,57.94
2017-10-08T11:48:15.650Z,58.23
2017-10-08T11:50:44.109Z,58.63
2017-10-08T11:53:12.616Z,58.06
2017-10-08T11:55:41.081Z,59.52
2017-10-08T11:58:09.526Z,57.87
2017-10-08T12:00:37.985Z,56.30
2017-10-08T12:03:06.528Z,54.50
2017-10-08T12:05:34.986Z,54.06
2017-10-08T12:08:04.198Z,54.83
2017-10-08T12:10:32.670Z,55.05
2017-10-08T12:13:01.875Z,54.73
2017-10-08T12:15:31.076Z,54.92
2017-10-08T12:17:59.541Z,55.54
2017-10-08T12:20:28.746Z,55.47
2017-10-08T12:22:57.973Z,56.13
2017-10-08T12:25:26.412Z,57.37
2017-10-08T12:27:54.944Z,57.39
2017-10-08T12:30:23.388Z,58.35
2017-10-08T12:32:52.684Z,60.86
2017-10-08T12:35:21.884Z,63.17
2017-10-08T12:37:51.114Z,63.54
2017-10-08T12:40:19.561Z,63.33
2017-10-08T12:42:48.785Z,64.04
2017-10-08T12:45:17.286Z,63.86
2017-10-08T12:47:45.746Z,63.96
2017-10-08T12:50:15.242Z,63.54
2017-10-08T12:52:44.468Z,63.45
2017-10-08T12:55:12.909Z,62.95
2017-10-08T12:57:42.241Z,62.13
2017-10-08T13:00:10.682Z,62.35
2017-10-08T13:02:39.118Z,62.47
2017-10-08T13:05:07.581Z,62.55
2017-10-08T13:07:36.082Z,62.23
2017-10-08T13:10:04.546Z,60.91
2017-10-08T13:12:33.049Z,60.27
2017-10-08T13:15:01.534Z,60.64
2017-10-08T13:17:29.968Z,61.42
2017-10-08T13:19:59.214Z,61.52
2017-10-08T13:22:27.644Z,61.96
2017-10-08T13:24:56.876Z,62.66
2017-10-08T13:27:25.365Z,63.18
2017-10-08T13:29:53.830Z,63.23
2017-10-08T13:32:22.338Z,62.47
2017-10-08T13:34:50.823Z,62.86
2017-10-08T13:37:19.261Z,61.69
2017-10-08T13:39:48.508Z,59.11
2017-10-08T13:42:16.944Z,58.41
2017-10-08T13:44:46.150Z,58.52
2017-10-08T13:47:15.372Z,57.60
2017-10-08T13:49:43.861Z,58.03
2017-10-08T13:52:12.316Z,58.29
2017-10-08T13:54:41.523Z,58.74
2017-10-08T13:57:10.023Z,58.96
2017-10-08T13:59:38.469Z,59.61
2017-10-08T14:02:07.694Z,59.32
2017-10-08T14:04:36.129Z,59.71
2017-10-08T14:07:04.590Z,59.68
2017-10-08T14:09:33.020Z,58.35
2017-10-08T14:12:02.236Z,59.17
2017-10-08T14:14:30.722Z,59.62
2017-10-08T14:16:59.177Z,59.16
2017-10-08T14:19:28.419Z,58.28
2017-10-08T14:21:57.645Z,59.30
2017-10-08T14:24:26.081Z,59.91
2017-10-08T14:26:54.542Z,60.23
2017-10-08T14:29:23.745Z,61.64
2017-10-08T14:31:52.965Z,62.40
2017-10-08T14:34:21.394Z,63.30
2017-10-08T14:36:49.857Z,63.68
2017-10-08T14:39:18.292Z,63.10
2017-10-08T14:41:46.720Z,62.80
2017-10-08T14:44:15.172Z,63.43
2017-10-08T14:46:43.610Z,63.56
2017-10-08T14:49:12.063Z,64.86
2017-10-08T14:51:40.518Z,65.08
2017-10-08T14:54:09.006Z,64.18
2017-10-08T14:56:37.449Z,63.17
2017-10-08T14:59:06.673Z,64.48
2017-10-08T15:01:35.117Z,63.47
2017-10-08T15:04:04.345Z,62.55
2017-10-08T15:06:32.808Z,61.59
2017-10-08T15:09:02.084Z,62.38
2017-10-08T15:11:30.516Z,63.08
2017-10-08T15:13:58.992Z,63.89
2017-10-08T15:16:27.429Z,63.82
2017-10-08T15:18:55.874Z,63.70
2017-10-08T15:21:24.333Z,63.11
2017-10-08T15:23:52.769Z,63.57
2017-10-08T15:26:22.040Z,63.73
2017-10-08T15:28:50.472Z,64.91
2017-10-08T15:31:19.697Z,65.12
2017-10-08T15:33:48.132Z,65.72
2017-10-08T15:36:17.179Z,65.84
2017-10-08T15:38:45.614Z,65.79
2017-10-08T15:41:14.074Z,65.72
2017-10-08T15:43:42.518Z,65.65
2017-10-08T15:46:10.981Z,65.72
2017-10-08T15:48:40.214Z,66.45
2017-10-08T15:51:08.677Z,66.82
2017-10-08T15:53:37.177Z,67.57
2017-10-08T15:56:05.641Z,68.64
2017-10-08T15:58:34.091Z,68.49
2017-10-08T16:01:04.072Z,67.92
2017-10-08T16:03:32.509Z,67.64
2017-10-08T16:06:01.745Z,67.25
2017-10-08T16:08:30.230Z,66.89
2017-10-08T16:10:58.669Z,66.84
2017-10-08T16:13:27.883Z,67.50
2017-10-08T16:15:56.329Z,67.21
2017-10-08T16:18:24.788Z,67.19
2017-10-08T16:20:53.225Z,67.50
2017-10-08T16:23:21.685Z,68.30
2017-10-08T16:25:50.895Z,68.56
2017-10-08T16:28:20.224Z,69.47
2017-10-08T16:30:48.715Z,69.73
2017-10-08T16:33:17.176Z,69.27
2017-10-08T16:35:45.613Z,69.92
2017-10-08T16:38:14.058Z,69.78
2017-10-08T16:40:42.541Z,70.64
2017-10-08T16:43:11.001Z,70.99
2017-10-08T16:45:39.499Z,71.10
2017-10-08T16:48:07.973Z,71.70
2017-10-08T16:50:36.406Z,72.01
2017-10-08T16:53:04.865Z,72.32
2017-10-08T16:55:33.305Z,72.50
2017-10-08T16:58:01.796Z,72.88
2017-10-08T17:00:30.221Z,72.80
2017-10-08T17:02:58.658Z,72.88
2017-10-08T17:05:27.116Z,72.77
2017-10-08T17:07:56.354Z,72.96
2017-10-08T17:10:24.811Z,73.33
2017-10-08T17:12:53.296Z,73.96
2017-10-08T17:15:21.758Z,74.18
2017-10-08T17:17:50.957Z,75.12
2017-10-08T17:20:20.181Z,75.55
2017-10-08T17:22:48.618Z,75.88
2017-10-08T17:25:17.089Z,76.49
2017-10-08T17:27:45.643Z,77.07
2017-10-08T17:30:14.116Z,77.34
2017-10-08T17:32:42.545Z,77.64
2017-10-08T17:35:10.992Z,77.87
2017-10-08T17:37:39.446Z,78.34
2017-10-08T17:40:07.948Z,78.47
2017-10-08T17:42:36.384Z,78.70
2017-10-08T17:45:05.633Z,78.75
2017-10-08T17:47:34.065Z,79.36
2017-10-08T17:50:03.274Z,79.63
2017-10-08T17:52:32.493Z,79.91
2017-10-08T17:55:00.925Z,80.29
2017-10-08T17:57:31.006Z,80.56
2017-10-08T17:59:59.440Z,81.05
2017-10-08T18:02:27.894Z,81.06
2017-10-08T18:04:56.331Z,81.21
2017-10-08T18:07:24.784Z,81.40
2017-10-08T18:09:53.217Z,81.47
2017-10-08T18:12:21.672Z,81.45
2017-10-08T18:14:50.100Z,81.47
2017-10-08T18:17:18.553Z,81.75
2017-10-08T18:19:46.986Z,82.20
2017-10-08T18:22:15.445Z,82.38
2017-10-08T18:24:43.871Z,82.83
2017-10-08T18:27:13.099Z,82.93
2017-10-08T18:29:41.576Z,83.56
2017-10-08T18:32:10.063Z,83.35
2017-10-08T18:34:38.509Z,83.63
2017-10-08T18:37:07.704Z,84.45
2017-10-08T18:39:36.926Z,83.96
2017-10-08T18:42:05.365Z,84.62
2017-10-08T18:44:34.591Z,84.89
2017-10-08T18:47:03.785Z,85.11
2017-10-08T18:49:33.005Z,85.70
2017-10-08T18:52:01.449Z,86.04
2017-10-08T18:54:30.680Z,85.99
2017-10-08T18:56:59.187Z,86.09
2017-10-08T18:59:27.661Z,86.62
2017-10-08T19:01:56.140Z,86.56
2017-10-08T19:04:24.593Z,86.60
2017-10-08T19:06:53.794Z,86.56
2017-10-08T19:09:23.125Z,86.61
2017-10-08T19:11:51.627Z,86.61
2017-10-08T19:14:20.070Z,86.56
2017-10-08T19:16:48.530Z,86.41
2017-10-08T19:19:17.742Z,85.76
2017-10-08T19:21:47.073Z,86.14
2017-10-08T19:24:15.543Z,85.77
2017-10-08T19:26:44.047Z,85.78
2017-10-08T19:29:12.523Z,85.41
2017-10-08T19:31:40.981Z,85.63
2017-10-08T19:34:09.460Z,85.93
2017-10-08T19:36:38.681Z,86.25
2017-10-08T19:39:07.113Z,86.69
2017-10-08T19:41:35.569Z,86.58
2017-10-08T19:44:03.996Z,87.15
2017-10-08T19:46:33.217Z,87.12
2017-10-08T19:49:01.653Z,87.06
2017-10-08T19:51:30.910Z,87.10
2017-10-08T19:53:59.395Z,87.26
2017-10-08T19:56:27.824Z,87.76
2017-10-08T19:58:56.281Z,88.03
2017-10-08T20:01:24.735Z,87.49
2017-10-08T20:03:53.198Z,87.65
2017-10-08T20:06:21.692Z,87.61
2017-10-08T20:08:50.144Z,87.83
2017-10-08T20:11:19.372Z,87.99
2017-10-08T20:13:47.825Z,88.06
2017-10-08T20:16:17.026Z,87.67
2017-10-08T20:18:46.361Z,88.26
2017-10-08T20:21:14.806Z,87.68
2017-10-08T20:23:44.025Z,88.39
2017-10-08T20:26:12.530Z,88.01
2017-10-08T20:28:40.989Z,87.99
2017-10-08T20:31:12.337Z,88.18
2017-10-08T20:33:40.789Z,88.38
2017-10-08T20:36:10.039Z,88.25
2017-10-08T20:38:38.473Z,88.53
2017-10-08T20:41:07.681Z,88.92
2017-10-08T20:43:36.869Z,88.48
2017-10-08T20:46:06.083Z,88.69
2017-10-08T20:48:35.273Z,88.65
2017-10-08T20:51:04.498Z,88.61
2017-10-08T20:53:32.923Z,88.96
2017-10-08T20:56:01.600Z,88.49
2017-10-08T20:58:30.037Z,88.73
2017-10-08T21:00:59.260Z,88.76
2017-10-08T21:03:27.693Z,88.98
2017-10-08T21:05:56.136Z,88.97
2017-10-08T21:08:24.566Z,88.90
2017-10-08T21:10:53.779Z,89.06
2017-10-08T21:13:22.973Z,89.44
2017-10-08T21:15:52.296Z,89.24
2017-10-08T21:18:20.722Z,89.56
2017-10-08T21:20:49.154Z,89.59
2017-10-08T21:23:17.625Z,89.47
2017-10-08T21:25:46.053Z,89.53
2017-10-08T21:28:14.515Z,89.63
2017-10-08T21:30:42.954Z,89.66
2017-10-08T21:33:12.165Z,89.64
2017-10-08T21:35:41.353Z,89.57
2017-10-08T21:38:10.564Z,90.05
2017-10-08T21:40:39.004Z,89.92
2017-10-08T21:43:07.437Z,89.97
2017-10-08T21:45:35.867Z,90.02
2017-10-08T21:48:04.408Z,90.00
2017-10-08T21:50:32.840Z,90.18
2017-10-08T21:53:01.284Z,90.17
2017-10-08T21:55:29.713Z,89.97
2017-10-08T21:57:58.933Z,89.82
2017-10-08T22:00:27.360Z,89.98
2017-10-08T22:02:55.809Z,90.09
2017-10-08T22:05:24.262Z,90.22
2017-10-08T22:07:53.448Z,90.03
2017-10-08T22:10:23.400Z,90.07
2017-10-08T22:12:51.889Z,89.86
2017-10-08T22:15:20.341Z,89.95
2017-10-08T22:17:49.541Z,89.92
2017-10-08T22:20:18.760Z,89.58
2017-10-08T22:22:47.189Z,89.63
2017-10-08T22:25:15.642Z,89.52
2017-10-08T22:27:44.073Z,89.91
2017-10-08T22:30:13.297Z,89.40
2017-10-08T22:32:41.729Z,89.37
2017-10-08T22:35:10.275Z,89.42
2017-10-08T22:37:38.756Z,89.25
2017-10-08T22:40:07.208Z,89.57
2017-10-08T22:42:36.409Z,89.43
2017-10-08T22:45:05.640Z,89.47
2017-10-08T22:47:34.060Z,89.39
2017-10-08T22:50:02.576Z,89.48
2017-10-08T22:52:31.774Z,89.57
2017-10-08T22:55:01.118Z,89.81
2017-10-08T22:57:29.553Z,89.88
2017-10-08T22:59:58.790Z,89.71
2017-10-08T23:02:27.225Z,89.84
2017-10-08T23:04:55.754Z,89.64
2017-10-08T23:07:24.214Z,90.00
2017-10-08T23:09:52.650Z,89.78
2017-10-08T23:12:21.109Z,89.74
2017-10-08T23:14:49.531Z,89.91
2017-10-08T23:17:19.490Z,89.79
2017-10-08T23:19:47.922Z,89.86
2017-10-08T23:22:17.142Z,89.95
2017-10-08T23:24:46.376Z,90.12
2017-10-08T23:27:14.848Z,90.10
2017-10-08T23:29:43.274Z,90.54
2017-10-08T23:32:12.532Z,90.29
2017-10-08T23:34:41.026Z,90.26
2017-10-08T23:37:09.480Z,90.26
2017-10-08T23:39:37.914Z,90.34
2017-10-08T23:42:06.466Z,90.40
2017-10-08T23:44:34.940Z,90.51
2017-10-08T23:47:03.409Z,90.43
2017-10-08T23:49:31.846Z,90.63
2017-10-08T23:52:00.388Z,90.96
2017-10-08T23:54:28.846Z,91.07
2017-10-08T23:56:58.046Z,90.73
2017-10-08T23:59:27.260Z,90.88
